createdAt,value
2022-08-26T00:04:46.839Z,99826.73
2022-08-26T00:09:50.043Z,99822.59
2022-08-26T00:14:53.613Z,99817.08
2022-08-26T00:19:56.835Z,99815.48
2022-08-26T00:24:59.810Z,99809.70
2022-08-26T00:30:07.250Z,99807.98
2022-08-26T00:35:12.492Z,99808.78
2022-08-26T00:40:21.867Z,99806.10
2022-08-26T00:45:26.215Z,99806.13
2022-08-26T00:50:35.293Z,99812.17
2022-08-26T00:55:42.578Z,99810.47
2022-08-26T01:00:50.152Z,99812.05
2022-08-26T01:06:02.076Z,99810.25
2022-08-26T01:11:06.894Z,99806.70
2022-08-26T01:16:15.471Z,99806.45
2022-08-26T01:21:29.446Z,99809.35
2022-08-26T01:26:41.193Z,99809.44
2022-08-26T01:31:50.003Z,99802.77
2022-08-26T01:37:05.851Z,99800.92
2022-08-26T01:42:16.168Z,99800.21
2022-08-26T01:47:25.101Z,99797.16
2022-08-26T01:52:31.077Z,99796.48
2022-08-26T01:57:35.698Z,99798.30
2022-08-26T02:02:49.575Z,99803.04
2022-08-26T02:07:53.852Z,99804.38
2022-08-26T02:12:58.191Z,99800.88
2022-08-26T02:18:05.470Z,99799.09
2022-08-26T02:23:09.515Z,99797.21
2022-08-26T02:28:13.738Z,99794.56
2022-08-26T02:33:18.314Z,99794.41
2022-08-26T02:38:23.675Z,99796.15
2022-08-26T02:43:31.623Z,99793.02
2022-08-26T02:48:39.638Z,99800.55
2022-08-26T02:53:43.817Z,99794.80
2022-08-26T02:58:49.089Z,99796.24
2022-08-26T03:03:55.093Z,99794.52
2022-08-26T03:08:59.228Z,99785.34
2022-08-26T03:14:04.275Z,99789.76
2022-08-26T03:19:11.603Z,99788.52
2022-08-26T03:24:16.056Z,99783.83
2022-08-26T03:29:39.639Z,99780.95
2022-08-26T03:34:44.451Z,99780.73
2022-08-26T03:39:51.434Z,99779.08
2022-08-26T03:44:55.771Z,99777.98
2022-08-26T03:50:01.030Z,99772.17
2022-08-26T03:55:08.929Z,99774.60
2022-08-26T04:00:19.618Z,99773.46
2022-08-26T04:05:24.395Z,99776.05
2022-08-26T04:10:29.069Z,99778.55
2022-08-26T04:15:33.305Z,99779.28
2022-08-26T04:20:37.815Z,99776.33
2022-08-26T04:25:41.264Z,99781.17
2022-08-26T04:30:45.428Z,99782.85
2022-08-26T04:35:50.628Z,99781.14
2022-08-26T04:40:55.553Z,99780.11
2022-08-26T04:46:04.676Z,99781.14
2022-08-26T04:51:08.563Z,99775.84
2022-08-26T04:56:14.755Z,99778.04
2022-08-26T05:01:19.188Z,99776.92
2022-08-26T05:06:23.718Z,99772.84
2022-08-26T05:11:32.262Z,99775.91
2022-08-26T05:16:36.342Z,99776.32
2022-08-26T05:21:40.323Z,99781.83
2022-08-26T05:26:44.882Z,99788.65
2022-08-26T05:31:52.349Z,99786.91
2022-08-26T05:36:56.788Z,99788.55
2022-08-26T05:42:04.646Z,99795.75
2022-08-26T05:47:08.816Z,99795.42
2022-08-26T05:52:13.702Z,99796.73
2022-08-26T05:57:18.582Z,99804.52
2022-08-26T06:02:27.239Z,99802.22
2022-08-26T06:08:02.427Z,99797.13
2022-08-26T06:13:11.942Z,99794.34
2022-08-26T06:18:20.184Z,99791.94
2022-08-26T06:23:43.229Z,99792.39
2022-08-26T06:28:47.336Z,99796.70
2022-08-26T06:33:51.630Z,99793.95
2022-08-26T06:39:01.401Z,99794.58
2022-08-26T06:44:08.299Z,99795.48
2022-08-26T06:49:13.524Z,99791.52
2022-08-26T06:54:22.427Z,99790.98
2022-08-26T06:59:28.245Z,99792.06
2022-08-26T07:04:34.291Z,99795.52
2022-08-26T07:09:39.738Z,99795.85
2022-08-26T07:14:47.388Z,99797.81
2022-08-26T07:19:52.536Z,99797.66
2022-08-26T07:24:57.782Z,99800.99
2022-08-26T07:30:03.163Z,99797.38
2022-08-26T07:35:07.945Z,99795.50
2022-08-26T07:40:12.660Z,99792.70
2022-08-26T07:45:17.482Z,99788.83
2022-08-26T07:50:48.781Z,99794.02
2022-08-26T07:55:48.047Z,99791.08
2022-08-26T08:01:20.267Z,99791.27
2022-08-26T08:06:28.128Z,99795.33
2022-08-26T08:11:32.867Z,99795.04
2022-08-26T08:16:40.176Z,99794.30
2022-08-26T08:21:52.669Z,99793.95
2022-08-26T08:27:00.411Z,99799.32
2022-08-26T08:32:05.570Z,99793.44
2022-08-26T08:37:15.324Z,99793.05
2022-08-26T08:42:44.621Z,99791.29
2022-08-26T08:47:58.896Z,99792.40
2022-08-26T08:53:20.983Z,99792.05
2022-08-26T08:58:56.918Z,99791.66
2022-08-26T09:04:20.659Z,99787.02
2022-08-26T09:09:50.856Z,99784.42
2022-08-26T09:15:03.090Z,99782.71
2022-08-26T09:20:45.548Z,99781.01
2022-08-26T09:25:56.992Z,99783.58
2022-08-26T09:31:31.827Z,99777.60
2022-08-26T09:36:45.209Z,99772.97
2022-08-26T09:42:05.048Z,99772.66
2022-08-26T09:47:13.051Z,99764.59
2022-08-26T09:52:24.659Z,99753.98
2022-08-26T09:57:32.736Z,99752.65
2022-08-26T10:02:41.461Z,99746.02
2022-08-26T10:07:54.397Z,99751.42
2022-08-26T10:13:26.818Z,99748.23
2022-08-26T10:18:37.918Z,99748.65
2022-08-26T10:23:50.050Z,99746.85
2022-08-26T10:29:07.900Z,99742.12
2022-08-26T10:34:14.009Z,99739.29
2022-08-26T10:39:27.067Z,99737.11
2022-08-26T10:44:35.560Z,99729.48
2022-08-26T10:49:45.130Z,99729.25
2022-08-26T10:55:03.120Z,99721.43
2022-08-26T11:00:32.449Z,99720.16
2022-08-26T11:05:37.609Z,99715.07
2022-08-26T11:10:42.811Z,99706.56
2022-08-26T11:15:47.081Z,99702.13
2022-08-26T11:20:51.569Z,99699.94
2022-08-26T11:26:11.385Z,99691.70
2022-08-26T11:31:26.814Z,99684.98
2022-08-26T11:36:39.637Z,99677.73
2022-08-26T11:41:46.423Z,99673.13
2022-08-26T11:46:59.971Z,99673.94
2022-08-26T11:52:16.141Z,99673.78
2022-08-26T11:57:21.991Z,99668.20
2022-08-26T12:02:27.234Z,99666.14
2022-08-26T12:07:30.951Z,99659.20
2022-08-26T12:12:42.826Z,99657.94
2022-08-26T12:17:52.988Z,99655.43
2022-08-26T12:23:00.744Z,99646.64
2022-08-26T12:28:06.369Z,99644.38
2022-08-26T12:33:22.742Z,99638.62
2022-08-26T12:38:28.470Z,99635.22
2022-08-26T12:43:44.337Z,99631.29
2022-08-26T12:48:50.292Z,99627.16
2022-08-26T12:53:55.253Z,99619.46
2022-08-26T12:59:18.856Z,99621.27
2022-08-26T13:04:44.315Z,99616.36
2022-08-26T13:09:49.999Z,99605.13
2022-08-26T13:14:55.152Z,99598.09
2022-08-26T13:20:03.849Z,99599.36
2022-08-26T13:25:09.115Z,99595.48
2022-08-26T13:30:14.326Z,99592.39
2022-08-26T13:35:19.032Z,99590.73
2022-08-26T13:40:23.158Z,99582.85
2022-08-26T13:45:28.774Z,99577.31
2022-08-26T13:50:35.073Z,99566.06
2022-08-26T13:55:39.458Z,99562.90
2022-08-26T14:00:44.165Z,99562.48
2022-08-26T14:05:48.752Z,99556.47
2022-08-26T14:10:53.402Z,99555.45
2022-08-26T14:16:03.042Z,99548.29
2022-08-26T14:21:09.667Z,99544.11
2022-08-26T14:26:28.684Z,99545.41
2022-08-26T14:31:35.497Z,99541.55
2022-08-26T14:36:39.099Z,99545.45
2022-08-26T14:41:55.904Z,99542.02
2022-08-26T14:47:03.829Z,99536.88
2022-08-26T14:52:12.887Z,99528.24
2022-08-26T14:57:17.965Z,99530.48
2022-08-26T15:02:32.937Z,99530.20
2022-08-26T15:07:39.303Z,99522.11
2022-08-26T15:12:44.938Z,99515.55
2022-08-26T15:17:51.594Z,99508.88
2022-08-26T15:22:55.981Z,99501.98
2022-08-26T15:28:00.123Z,99497.10
2022-08-26T15:33:03.778Z,99492.51
2022-08-26T15:38:07.783Z,99491.45
2022-08-26T15:43:27.710Z,99493.71
2022-08-26T15:48:31.718Z,99494.23
2022-08-26T15:53:39.243Z,99491.61
2022-08-26T15:58:44.914Z,99493.73
2022-08-26T16:03:50.114Z,99497.54
2022-08-26T16:08:55.955Z,99497.19
2022-08-26T16:14:01.401Z,99494.30
2022-08-26T16:19:08.024Z,99496.02
2022-08-26T16:24:13.491Z,99488.05
2022-08-26T16:29:18.349Z,99483.09
2022-08-26T16:34:27.951Z,99484.89
2022-08-26T16:39:32.727Z,99477.29
2022-08-26T16:44:47.356Z,99475.95
2022-08-26T16:49:52.527Z,99477.09
2022-08-26T16:54:56.829Z,99475.43
2022-08-26T17:00:06.714Z,99476.55
2022-08-26T17:05:14.283Z,99474.29
2022-08-26T17:10:20.451Z,99478.55
2022-08-26T17:15:27.134Z,99474.48
2022-08-26T17:20:30.548Z,99477.91
2022-08-26T17:25:33.893Z,99479.40
2022-08-26T17:30:38.213Z,99481.98
2022-08-26T17:35:48.113Z,99482.91
2022-08-26T17:40:52.610Z,99484.28
2022-08-26T17:46:04.585Z,99481.20
2022-08-26T17:51:15.867Z,99483.80
2022-08-26T17:56:24.540Z,99489.71
2022-08-26T18:01:28.600Z,99491.02
2022-08-26T18:06:32.737Z,99490.88
2022-08-26T18:11:36.581Z,99486.71
2022-08-26T18:16:41.914Z,99487.68
2022-08-26T18:21:46.466Z,99488.27
2022-08-26T18:26:51.533Z,99488.58
2022-08-26T18:31:59.029Z,99486.37
2022-08-26T18:37:19.700Z,99487.10
2022-08-26T18:42:24.654Z,99481.42
2022-08-26T18:47:28.473Z,99478.32
2022-08-26T18:52:33.236Z,99483.73
2022-08-26T18:57:37.046Z,99475.23
2022-08-26T19:02:47.022Z,99475.29
2022-08-26T19:07:57.222Z,99474.51
2022-08-26T19:13:00.929Z,99473.23
2022-08-26T19:18:08.016Z,99471.27
2022-08-26T19:23:30.519Z,99472.35
2022-08-26T19:28:39.303Z,99470.29
2022-08-26T19:33:45.915Z,99469.60
2022-08-26T19:38:50.551Z,99474.59
2022-08-26T19:43:55.409Z,99478.05
2022-08-26T19:49:03.460Z,99483.70
2022-08-26T19:54:07.531Z,99486.05
2022-08-26T19:59:12.411Z,99489.69
2022-08-26T20:04:17.316Z,99497.58
2022-08-26T20:09:23.054Z,99502.34
2022-08-26T20:14:28.620Z,99509.20
2022-08-26T20:19:51.826Z,99508.95
2022-08-26T20:24:57.659Z,99515.18
2022-08-26T20:30:03.159Z,99518.70
2022-08-26T20:35:12.376Z,99520.09
2022-08-26T20:40:20.387Z,99520.23
2022-08-26T20:45:24.534Z,99522.77
2022-08-26T20:50:29.264Z,99527.50
2022-08-26T20:55:33.863Z,99527.66
2022-08-26T21:00:38.918Z,99530.95
2022-08-26T21:05:43.548Z,99534.45
2022-08-26T21:10:47.411Z,99533.77
2022-08-26T21:15:50.620Z,99533.17
2022-08-26T21:20:54.553Z,99536.77
2022-08-26T21:26:03.224Z,99532.70
2022-08-26T21:31:10.301Z,99529.53
2022-08-26T21:36:15.045Z,99528.14
2022-08-26T21:41:24.493Z,99526.91
2022-08-26T21:46:30.634Z,99521.84
2022-08-26T21:51:36.639Z,99524.85
2022-08-26T21:56:47.259Z,99523.32
2022-08-26T22:01:51.465Z,99513.38
2022-08-26T22:06:57.889Z,99510.65
2022-08-26T22:12:01.184Z,99506.77
2022-08-26T22:17:05.024Z,99503.92
2022-08-26T22:22:09.141Z,99499.70
2022-08-26T22:27:14.326Z,99494.63
2022-08-26T22:32:18.965Z,99491.17
2022-08-26T22:37:23.223Z,99496.97
2022-08-26T22:42:30.590Z,99496.88
2022-08-26T22:47:35.913Z,99498.77
2022-08-26T22:52:42.636Z,99493.80
2022-08-26T22:57:46.365Z,99492.73
2022-08-26T23:02:50.690Z,99489.83
2022-08-26T23:07:55.048Z,99485.58
2022-08-26T23:12:58.998Z,99484.03
2022-08-26T23:18:03.594Z,99486.05
2022-08-26T23:23:08.442Z,99484.50
2022-08-26T23:28:13.267Z,99480.73
2022-08-26T23:33:17.515Z,99480.90
2022-08-26T23:38:21.892Z,99474.88
2022-08-26T23:43:26.977Z,99466.48
2022-08-26T23:48:31.183Z,99462.69
2022-08-26T23:53:35.338Z,99459.55
2022-08-26T23:58:39.190Z,99446.52
